Flight Track Log - Related Links

Times and Time Zones

All times are in EDT time to prevent confusion due to time zone crossing. See the N677MC flight status page for this flight to view local times or setup timezone preferences in your user account.

Time Position Orientation Groundspeed Altitude Reporting Facility
EDT Latitude Longitude Course Direction KTS MPH feet Rate Location/Type
Thu 08:40:15 PM 41.9833 -87.8667 124° Southeast 168 193 1,900  Level Chicago TRACON
Thu 08:41:15 PM 41.9500 -87.8000 174° South 205 236 3,500 1,323 Climbing Chicago TRACON
Thu 08:43:21 PM 41.8208 -87.7811 171° South 226 260 6,000 1,710 Climbing Chicago Center
Thu 08:44:21 PM 41.7517 -87.7661 169° South 239 275 8,800 2,200 Climbing Chicago Center
Thu 08:46:21 PM 41.6011 -87.7256 176° South 269 310 12,600 1,733 Climbing Chicago Center
Thu 08:47:21 PM 41.5072 -87.7167 178° South 300 345 14,000 1,400 Climbing Chicago Center
Thu 08:48:21 PM 41.4069 -87.7111 182° South 337 388 15,400 1,450 Climbing Chicago Center
Thu 08:49:21 PM 41.3008 -87.7164 192° South 365 420 16,900 1,500 Climbing Chicago Center
Thu 08:50:21 PM 41.1928 -87.7467 171° South 388 447 18,400 1,650 Climbing Chicago Center
Thu 08:51:21 PM 41.0756 -87.7219 167° South 419 482 20,200 1,700 Climbing Chicago Center
Thu 08:52:21 PM 40.9583 -87.6864 167° South 434 499 21,800 1,650 Climbing Chicago Center
Thu 08:53:21 PM 40.8411 -87.6511 174° South 434 499 23,500 1,626 Climbing Chicago Center
Thu 08:55:44 PM 40.5631 -87.6144 174° South 442 509 27,300 1,567 Climbing Indianapolis Center
Thu 08:56:44 PM 40.4469 -87.5994 160° South 436 502 28,800 850 Climbing Indianapolis Center
Thu 08:57:44 PM 40.3319 -87.5436 157° South 441 507 29,000 100 Climbing Indianapolis Center
Thu 08:58:44 PM 40.2092 -87.4742 160° South 465 535 29,000  Level Indianapolis Center
Thu 08:59:44 PM 40.0861 -87.4156 166° South 474 545 29,000  Level Indianapolis Center
Thu 09:00:44 PM 39.9581 -87.3733 164° South 468 539 29,000  Level Indianapolis Center
Thu 09:01:44 PM 39.8325 -87.3258 166° South 474 545 29,000  Level Indianapolis Center
Thu 09:02:44 PM 39.7003 -87.2839 166° South 483 556 29,000  Level Indianapolis Center
Thu 09:03:44 PM 39.5622 -87.2389 166° South 478 550 29,000  Level Indianapolis Center
Thu 09:04:44 PM 39.4319 -87.1972 167° South 485 558 29,000  Level Indianapolis Center
Thu 09:05:44 PM 39.3019 -87.1583 167° South 485 558 29,000  Level Indianapolis Center
Thu 09:06:44 PM 39.1694 -87.1194 167° South 485 558 29,000  Level Indianapolis Center
Thu 09:07:44 PM 39.0600 -87.0872 164° South 478 550 29,000  Level Indianapolis Center
Thu 09:08:44 PM 38.9300 -87.0408 163° South 478 550 29,000  Level Indianapolis Center
Thu 09:09:44 PM 38.7897 -86.9861 162° South 478 550 29,000  Level Indianapolis Center
Thu 09:10:45 PM 38.6578 -86.9319 161° South 483 556 29,000  Level Indianapolis Center
Thu 09:11:44 PM 38.5322 -86.8756 162° South 488 562 29,000  Level Indianapolis Center
Thu 09:12:44 PM 38.4022 -86.8219 163° South 488 562 29,000  Level Indianapolis Center
Thu 09:13:43 PM 38.2722 -86.7711 165° South 493 567 29,000  Level Indianapolis Center
Thu 09:14:44 PM 38.1419 -86.7258 163° South 493 567 29,000  Level Indianapolis Center
Thu 09:15:44 PM 38.0264 -86.6814 165° South 488 562 29,000  Level Indianapolis Center
Thu 09:16:44 PM 37.8961 -86.6364 164° South 488 562 29,000  Level Indianapolis Center
Thu 09:19:07 PM 37.5725 -86.5186 165° South 481 554 29,000  Level Memphis Center
Thu 09:20:07 PM 37.4419 -86.4753 164° South 481 554 29,000  Level Memphis Center
Thu 09:21:07 PM 37.3114 -86.4297 165° South 481 554 29,000  Level Memphis Center
Thu 09:22:07 PM 37.1808 -86.3867 174° South 481 554 29,000  Level Memphis Center
Thu 09:23:07 PM 37.0511 -86.3697 186° South 476 548 29,000  Level Memphis Center
Thu 09:24:07 PM 36.9183 -86.3867 185° South 476 548 29,000  Level Memphis Center
Thu 09:25:07 PM 36.7978 -86.4006 182° South 476 548 29,000  Level Memphis Center
Thu 09:26:07 PM 36.6647 -86.4069 183° South 481 554 29,000  Level Memphis Center
Thu 09:27:07 PM 36.5317 -86.4161 180° South 481 554 29,000  Level Memphis Center
Thu 09:28:07 PM 36.3983 -86.4175 178° South 481 554 29,000  Level Memphis Center
Thu 09:29:07 PM 36.2500 -86.4117 179° South 486 559 29,000  Level Memphis Center
Thu 09:30:07 PM 36.1144 -86.4081 178° South 486 559 29,000  Level Memphis Center
Thu 09:31:07 PM 35.9808 -86.4017 178° South 486 559 29,000  Level Memphis Center
Thu 09:32:07 PM 35.8450 -86.3953 163° South 486 559 29,000 -32 Level Memphis Center
Thu 09:34:16 PM 35.5933 -86.2989 139° Southeast 468 539 28,900  Descending Atlanta Center
Thu 09:35:16 PM 35.4867 -86.1864 144° Southeast 489 563 29,000 -100 Climbing Atlanta Center
Thu 09:36:16 PM 35.3778 -86.0892 146° Southeast 494 568 28,700 -900 Descending Atlanta Center
Thu 09:37:16 PM 35.2647 -85.9950 144° Southeast 499 574 27,200 -1,650 Descending Atlanta Center
Thu 09:38:16 PM 35.1658 -85.9061 144° Southeast 474 545 25,400 -1,550 Descending Atlanta Center
Thu 09:39:16 PM 35.0711 -85.8228 145° Southeast 443 510 24,100 -700 Descending Atlanta Center
Thu 09:40:16 PM 34.9761 -85.7422 148° Southeast 424 488 24,000 -50 Descending Atlanta Center
Thu 09:41:16 PM 34.8731 -85.6642 149° Southeast 419 482 24,000  Level Atlanta Center
Thu 09:42:16 PM 34.7697 -85.5889 150° Southeast 432 497 24,000  Level Atlanta Center
Thu 09:43:16 PM 34.6642 -85.5161 150° Southeast 432 497 24,000 -1,300 Level Atlanta Center
Thu 09:44:16 PM 34.5628 -85.4439 148° Southeast 432 497 21,400 -2,500 Descending Atlanta Center
Thu 09:45:16 PM 34.4653 -85.3692 149° Southeast 425 489 19,000 -2,550 Descending Atlanta Center
Thu 09:46:16 PM 34.3661 -85.2969 142° Southeast 399 459 16,300 -2,600 Descending Atlanta Center
Thu 09:47:16 PM 34.2853 -85.2206 142° Southeast 378 435 13,800 -1,600 Descending Atlanta Center
Thu 09:48:16 PM 34.2089 -85.1489 140° Southeast 359 413 13,100 -350 Descending Atlanta Center
Thu 09:49:16 PM 34.1406 -85.0803 134° Southeast 335 386 13,100  Level Atlanta Center
Thu 09:50:16 PM 34.0847 -85.0094 133° Southeast 330 380 13,100 -450 Level Atlanta Center
Thu 09:51:16 PM 34.0269 -84.9336 136° Southeast 314 361 12,200 -1,350 Descending Atlanta Center
Thu 09:52:16 PM 33.9689 -84.8653 141° Southeast 301 346 10,400 -1,450 Descending Atlanta Center
Thu 09:53:16 PM 33.9086 -84.8072 164° South 290 334 9,300 -800 Descending Atlanta Center
Thu 09:54:16 PM 33.8358 -84.7817 163° South 274 315 8,800 -952 Descending Atlanta Center
Thu 09:55:22 PM 33.7500 -84.7500 157° South 271 312 7,300 -1,095 Descending Atlanta TRACON
Thu 09:56:22 PM 33.6833 -84.7167 129° Southeast 246 283 6,500 -1,050 Descending Atlanta TRACON
Thu 09:57:22 PM 33.6500 -84.6667 90° East 231 266 5,200 -1,167 Descending Atlanta TRACON
Thu 09:58:10 PM 33.6500 -84.6000 90° East 217 250 4,400 -1,222 Descending Atlanta TRACON
Thu 09:59:10 PM 33.6500 -84.5500 90° East 177 204 3,000 -1,190 Descending Atlanta TRACON
Thu 10:00:16 PM 33.6500 -84.5000 90° East 132 152 1,900 -857 Descending Atlanta TRACON
Thu 10:01:16 PM 33.6500 -84.4500 90° East 133 153 1,200 -700 Descending Atlanta TRACON

Login

Don't have an account? Register now (free) for customized features, flight alerts, and more!